Hopedale, Illinois
Current Conditions -  °F | °C
As of 12:35 PM on Thursday 27 Nov 2014 (Local Time) from KAAA Reporting Station
Overcast Overcast  
Wind Chill: 19°   Ceiling: 1400
Heat Index: 27°   Visibility: 10mi
Dew Point: 21°   Wind: 8mph
Humidity: 78%   Direction: 290°WNW
Pressure: 30.44"   Gusts: 16mph
Location:  40.42°N, 89.41°W
Report Text: KAAA 271835Z AUTO 29007G14KT 10SM OVC014 M03/M06 A3044 RMK AO2 T10261059
Loading
Personal Weather Stations






























Interactive Weather Map New forecast layout! Learn more

10-Day Weather Forecast

Advertisements
Track Severe Weather on mobile